sensor_id;sensor_type;location;lat;lon;timestamp;pressure;altitude;pressure_sealevel;temperature;humidity
78623;BME280;67943;54.412;9.502;2023-06-24T00:03:06;102159.63;;;16.05;71.32
78623;BME280;67943;54.412;9.502;2023-06-24T00:08:08;102156.19;;;16.00;71.43
78623;BME280;67943;54.412;9.502;2023-06-24T00:13:10;102157.19;;;15.95;72.08
78623;BME280;67943;54.412;9.502;2023-06-24T00:18:13;102160.94;;;15.86;72.45
78623;BME280;67943;54.412;9.502;2023-06-24T00:23:16;102166.38;;;15.80;72.88
78623;BME280;67943;54.412;9.502;2023-06-24T00:28:18;102163.03;;;15.70;73.23
78623;BME280;67943;54.412;9.502;2023-06-24T00:33:21;102169.34;;;15.65;73.48
78623;BME280;67943;54.412;9.502;2023-06-24T00:38:23;102169.50;;;15.59;73.40
78623;BME280;67943;54.412;9.502;2023-06-24T00:43:24;102167.06;;;15.45;73.91
78623;BME280;67943;54.412;9.502;2023-06-24T00:48:27;102173.34;;;15.39;74.07
78623;BME280;67943;54.412;9.502;2023-06-24T00:53:31;102175.28;;;15.31;74.36
78623;BME280;67943;54.412;9.502;2023-06-24T00:58:34;102191.16;;;15.33;74.32
78623;BME280;67943;54.412;9.502;2023-06-24T01:03:38;102189.47;;;15.30;74.19
78623;BME280;67943;54.412;9.502;2023-06-24T01:08:40;102182.47;;;15.26;74.50
78623;BME280;67943;54.412;9.502;2023-06-24T01:13:42;102182.53;;;15.23;74.58
78623;BME280;67943;54.412;9.502;2023-06-24T01:18:48;102194.94;;;15.21;74.62
78623;BME280;67943;54.412;9.502;2023-06-24T01:24:17;102196.81;;;15.14;75.02
78623;BME280;67943;54.412;9.502;2023-06-24T01:29:36;102202.16;;;15.13;75.31
78623;BME280;67943;54.412;9.502;2023-06-24T01:34:53;102200.50;;;15.06;75.46
78623;BME280;67943;54.412;9.502;2023-06-24T01:40:01;102194.38;;;15.02;75.76
78623;BME280;67943;54.412;9.502;2023-06-24T01:45:13;102204.00;;;15.08;75.00
78623;BME280;67943;54.412;9.502;2023-06-24T01:50:20;102196.09;;;15.05;75.02
78623;BME280;67943;54.412;9.502;2023-06-24T01:55:24;102198.88;;;14.99;75.11
78623;BME280;67943;54.412;9.502;2023-06-24T02:00:26;102200.75;;;14.94;75.21
78623;BME280;67943;54.412;9.502;2023-06-24T02:05:30;102203.41;;;14.92;75.03
78623;BME280;67943;54.412;9.502;2023-06-24T02:10:32;102200.84;;;14.88;75.34
78623;BME280;67943;54.412;9.502;2023-06-24T02:15:35;102200.00;;;14.85;75.72
78623;BME280;67943;54.412;9.502;2023-06-24T02:20:39;102189.44;;;14.82;75.49
78623;BME280;67943;54.412;9.502;2023-06-24T02:25:43;102189.41;;;14.84;75.17
78623;BME280;67943;54.412;9.502;2023-06-24T02:30:45;102185.88;;;14.83;74.88
78623;BME280;67943;54.412;9.502;2023-06-24T02:35:48;102179.78;;;14.78;75.24
78623;BME280;67943;54.412;9.502;2023-06-24T02:40:50;102189.50;;;14.78;74.88
78623;BME280;67943;54.412;9.502;2023-06-24T02:45:53;102190.44;;;14.75;74.93
78623;BME280;67943;54.412;9.502;2023-06-24T02:50:57;102193.97;;;14.74;74.56
78623;BME280;67943;54.412;9.502;2023-06-24T02:56:00;102202.88;;;14.72;74.73
78623;BME280;67943;54.412;9.502;2023-06-24T03:01:03;102203.81;;;14.69;74.45
78623;BME280;67943;54.412;9.502;2023-06-24T03:06:08;102210.03;;;14.67;74.41
78623;BME280;67943;54.412;9.502;2023-06-24T03:11:13;102218.91;;;14.63;74.01
78623;BME280;67943;54.412;9.502;2023-06-24T03:16:15;102214.66;;;14.52;74.44
78623;BME280;67943;54.412;9.502;2023-06-24T03:21:18;102213.84;;;14.47;74.77
78623;BME280;67943;54.412;9.502;2023-06-24T03:26:19;102218.19;;;14.53;75.13
78623;BME280;67943;54.412;9.502;2023-06-24T03:31:21;102225.19;;;14.56;74.91
78623;BME280;67943;54.412;9.502;2023-06-24T03:36:25;102235.78;;;14.57;74.93
78623;BME280;67943;54.412;9.502;2023-06-24T03:41:26;102236.59;;;14.62;75.01
78623;BME280;67943;54.412;9.502;2023-06-24T03:46:28;102233.00;;;14.66;74.93
78623;BME280;67943;54.412;9.502;2023-06-24T03:51:34;102234.72;;;14.70;75.38
78623;BME280;67943;54.412;9.502;2023-06-24T03:56:35;102234.72;;;14.70;75.72
78623;BME280;67943;54.412;9.502;2023-06-24T04:01:37;102234.59;;;14.76;75.49
78623;BME280;67943;54.412;9.502;2023-06-24T04:06:40;102236.38;;;14.74;75.70
78623;BME280;67943;54.412;9.502;2023-06-24T04:11:41;102234.63;;;14.73;76.11
78623;BME280;67943;54.412;9.502;2023-06-24T04:16:43;102238.19;;;14.72;76.57
78623;BME280;67943;54.412;9.502;2023-06-24T04:21:45;102232.69;;;14.84;76.64
78623;BME280;67943;54.412;9.502;2023-06-24T04:26:47;102227.97;;;15.02;76.78
78623;BME280;67943;54.412;9.502;2023-06-24T04:31:48;102228.72;;;15.10;76.57
78623;BME280;67943;54.412;9.502;2023-06-24T04:36:51;102232.88;;;15.25;76.37
78623;BME280;67943;54.412;9.502;2023-06-24T04:41:53;102220.34;;;15.33;76.36
78623;BME280;67943;54.412;9.502;2023-06-24T04:46:54;102228.22;;;15.37;76.32
78623;BME280;67943;54.412;9.502;2023-06-24T04:51:59;102241.63;;;15.30;76.75
78623;BME280;67943;54.412;9.502;2023-06-24T04:57:01;102243.47;;;15.26;77.38
78623;BME280;67943;54.412;9.502;2023-06-24T05:02:03;102245.81;;;15.43;77.24
78623;BME280;67943;54.412;9.502;2023-06-24T05:07:06;102252.47;;;15.65;77.03
78623;BME280;67943;54.412;9.502;2023-06-24T05:12:08;102266.56;;;15.69;77.03
78623;BME280;67943;54.412;9.502;2023-06-24T05:17:10;102266.38;;;15.78;77.05
78623;BME280;67943;54.412;9.502;2023-06-24T05:22:12;102270.69;;;15.85;76.86
78623;BME280;67943;54.412;9.502;2023-06-24T05:27:14;102256.41;;;15.89;76.83
78623;BME280;67943;54.412;9.502;2023-06-24T05:32:16;102257.06;;;16.00;76.84
78623;BME280;67943;54.412;9.502;2023-06-24T05:37:21;102261.50;;;16.00;76.63
78623;BME280;67943;54.412;9.502;2023-06-24T05:42:23;102253.50;;;16.01;76.75
78623;BME280;67943;54.412;9.502;2023-06-24T05:47:26;102248.00;;;16.10;76.45
78623;BME280;67943;54.412;9.502;2023-06-24T05:52:28;102256.75;;;16.15;76.85
78623;BME280;67943;54.412;9.502;2023-06-24T05:57:30;102270.03;;;16.15;76.89
78623;BME280;67943;54.412;9.502;2023-06-24T06:02:31;102268.94;;;16.24;77.18
78623;BME280;67943;54.412;9.502;2023-06-24T06:07:34;102272.47;;;16.25;77.29
78623;BME280;67943;54.412;9.502;2023-06-24T06:12:38;102266.97;;;16.34;77.60
78623;BME280;67943;54.412;9.502;2023-06-24T06:17:40;102274.28;;;16.63;77.49
78623;BME280;67943;54.412;9.502;2023-06-24T06:22:42;102274.75;;;16.81;77.28
78623;BME280;67943;54.412;9.502;2023-06-24T06:27:44;102269.66;;;17.08;76.13
78623;BME280;67943;54.412;9.502;2023-06-24T06:32:45;102272.97;;;17.17;76.42
78623;BME280;67943;54.412;9.502;2023-06-24T06:37:48;102271.28;;;17.47;75.95
78623;BME280;67943;54.412;9.502;2023-06-24T06:42:53;102280.63;;;17.62;73.06
78623;BME280;67943;54.412;9.502;2023-06-24T06:47:54;102272.22;;;17.79;73.85
78623;BME280;67943;54.412;9.502;2023-06-24T06:52:57;102268.13;;;18.28;72.51
78623;BME280;67943;54.412;9.502;2023-06-24T06:57:58;102269.09;;;18.53;70.43
78623;BME280;67943;54.412;9.502;2023-06-24T07:03:00;102266.09;;;18.65;70.18
78623;BME280;67943;54.412;9.502;2023-06-24T07:08:05;102276.34;;;18.77;69.53
78623;BME280;67943;54.412;9.502;2023-06-24T07:13:06;102270.53;;;18.93;68.74
78623;BME280;67943;54.412;9.502;2023-06-24T07:18:08;102272.88;;;19.03;69.38
78623;BME280;67943;54.412;9.502;2023-06-24T07:23:11;102277.50;;;19.23;68.51
78623;BME280;67943;54.412;9.502;2023-06-24T07:28:12;102281.72;;;19.57;66.37
78623;BME280;67943;54.412;9.502;2023-06-24T07:33:14;102275.97;;;19.67;65.11
78623;BME280;67943;54.412;9.502;2023-06-24T07:38:16;102279.69;;;19.88;62.76
78623;BME280;67943;54.412;9.502;2023-06-24T07:43:18;102268.06;;;20.12;63.76
78623;BME280;67943;54.412;9.502;2023-06-24T07:48:20;102272.63;;;20.55;60.88
78623;BME280;67943;54.412;9.502;2023-06-24T07:53:22;102256.84;;;20.71;59.36
78623;BME280;67943;54.412;9.502;2023-06-24T07:58:24;102269.16;;;20.97;59.50
78623;BME280;67943;54.412;9.502;2023-06-24T08:03:25;102274.59;;;21.16;57.63
78623;BME280;67943;54.412;9.502;2023-06-24T08:08:28;102269.38;;;21.13;57.65
78623;BME280;67943;54.412;9.502;2023-06-24T08:13:30;102282.28;;;21.45;58.01
78623;BME280;67943;54.412;9.502;2023-06-24T08:18:31;102274.78;;;21.53;56.76
78623;BME280;67943;54.412;9.502;2023-06-24T08:23:34;102280.28;;;21.50;54.92
78623;BME280;67943;54.412;9.502;2023-06-24T08:28:36;102271.28;;;21.72;55.62
78623;BME280;67943;54.412;9.502;2023-06-24T08:33:37;102259.72;;;22.10;55.33
78623;BME280;67943;54.412;9.502;2023-06-24T08:38:40;102273.94;;;22.50;52.41
78623;BME280;67943;54.412;9.502;2023-06-24T08:43:42;102269.25;;;22.72;48.82
78623;BME280;67943;54.412;9.502;2023-06-24T08:48:44;102255.00;;;22.89;48.02
78623;BME280;67943;54.412;9.502;2023-06-24T08:53:47;102252.13;;;23.28;47.19
78623;BME280;67943;54.412;9.502;2023-06-24T08:58:50;102252.88;;;23.82;45.18
78623;BME280;67943;54.412;9.502;2023-06-24T09:03:52;102255.00;;;23.75;45.26
78623;BME280;67943;54.412;9.502;2023-06-24T09:08:55;102265.38;;;23.48;47.72
78623;BME280;67943;54.412;9.502;2023-06-24T09:13:58;102268.50;;;23.91;47.37
78623;BME280;67943;54.412;9.502;2023-06-24T09:18:59;102266.00;;;24.04;48.12
78623;BME280;67943;54.412;9.502;2023-06-24T09:24:03;102257.13;;;24.35;46.43
78623;BME280;67943;54.412;9.502;2023-06-24T09:29:06;102255.78;;;24.89;46.29
78623;BME280;67943;54.412;9.502;2023-06-24T09:34:12;102258.16;;;24.79;46.05
78623;BME280;67943;54.412;9.502;2023-06-24T09:39:15;102262.22;;;25.32;44.58
78623;BME280;67943;54.412;9.502;2023-06-24T09:44:17;102239.50;;;25.66;43.62
78623;BME280;67943;54.412;9.502;2023-06-24T09:49:19;102240.56;;;25.48;43.41
78623;BME280;67943;54.412;9.502;2023-06-24T09:54:25;102244.00;;;25.21;45.01
78623;BME280;67943;54.412;9.502;2023-06-24T09:59:27;102237.03;;;25.62;44.64
78623;BME280;67943;54.412;9.502;2023-06-24T10:04:31;102230.25;;;24.96;44.84
78623;BME280;67943;54.412;9.502;2023-06-24T10:09:39;102239.44;;;25.08;46.28
78623;BME280;67943;54.412;9.502;2023-06-24T10:14:41;102210.16;;;25.32;46.21
78623;BME280;67943;54.412;9.502;2023-06-24T10:19:44;102221.94;;;25.59;45.35
78623;BME280;67943;54.412;9.502;2023-06-24T10:24:47;102208.25;;;26.05;45.44
78623;BME280;67943;54.412;9.502;2023-06-24T10:29:49;102220.66;;;26.63;43.62
78623;BME280;67943;54.412;9.502;2023-06-24T10:34:54;102219.22;;;26.30;43.28
78623;BME280;67943;54.412;9.502;2023-06-24T10:39:58;102200.00;;;26.49;43.66
78623;BME280;67943;54.412;9.502;2023-06-24T10:45:01;102207.22;;;26.75;42.51
78623;BME280;67943;54.412;9.502;2023-06-24T10:50:03;102192.72;;;27.03;42.23
78623;BME280;67943;54.412;9.502;2023-06-24T10:55:07;102185.81;;;27.12;41.73
78623;BME280;67943;54.412;9.502;2023-06-24T11:00:10;102185.31;;;26.92;42.47
78623;BME280;67943;54.412;9.502;2023-06-24T11:05:12;102181.38;;;26.71;42.03
78623;BME280;67943;54.412;9.502;2023-06-24T11:10:14;102191.91;;;26.62;42.65
78623;BME280;67943;54.412;9.502;2023-06-24T11:15:16;102187.97;;;27.07;42.20
78623;BME280;67943;54.412;9.502;2023-06-24T11:20:19;102182.81;;;27.67;40.90
78623;BME280;67943;54.412;9.502;2023-06-24T11:25:22;102167.63;;;27.90;41.42
78623;BME280;67943;54.412;9.502;2023-06-24T11:30:23;102176.00;;;28.11;40.54
78623;BME280;67943;54.412;9.502;2023-06-24T11:35:25;102179.31;;;27.78;41.13
78623;BME280;67943;54.412;9.502;2023-06-24T11:40:30;102179.13;;;27.43;41.54
78623;BME280;67943;54.412;9.502;2023-06-24T11:45:32;102167.25;;;27.71;41.52
78623;BME280;67943;54.412;9.502;2023-06-24T11:50:35;102176.41;;;28.17;39.79
78623;BME280;67943;54.412;9.502;2023-06-24T11:55:38;102170.47;;;27.25;41.75
78623;BME280;67943;54.412;9.502;2023-06-24T12:00:40;102161.41;;;27.13;41.64
78623;BME280;67943;54.412;9.502;2023-06-24T12:05:47;102161.03;;;27.56;41.07
78623;BME280;67943;54.412;9.502;2023-06-24T12:10:50;102169.28;;;28.16;38.78
78623;BME280;67943;54.412;9.502;2023-06-24T12:15:51;102166.41;;;28.31;38.80
78623;BME280;67943;54.412;9.502;2023-06-24T12:20:53;102165.59;;;28.17;38.53
78623;BME280;67943;54.412;9.502;2023-06-24T12:25:55;102162.63;;;28.57;37.76
78623;BME280;67943;54.412;9.502;2023-06-24T12:30:57;102152.44;;;28.00;39.27
78623;BME280;67943;54.412;9.502;2023-06-24T12:35:59;102151.94;;;27.82;39.67
78623;BME280;67943;54.412;9.502;2023-06-24T12:41:02;102155.81;;;27.91;39.13
78623;BME280;67943;54.412;9.502;2023-06-24T12:46:03;102143.75;;;28.20;38.83
78623;BME280;67943;54.412;9.502;2023-06-24T12:51:04;102146.38;;;28.33;38.36
78623;BME280;67943;54.412;9.502;2023-06-24T12:56:07;102147.41;;;27.83;39.42
78623;BME280;67943;54.412;9.502;2023-06-24T13:01:09;102147.28;;;27.84;38.80
78623;BME280;67943;54.412;9.502;2023-06-24T13:06:11;102150.41;;;27.91;39.74
78623;BME280;67943;54.412;9.502;2023-06-24T13:11:15;102150.09;;;27.83;39.00
78623;BME280;67943;54.412;9.502;2023-06-24T13:16:17;102141.09;;;27.95;40.20
78623;BME280;67943;54.412;9.502;2023-06-24T13:21:18;102141.63;;;28.00;39.22
78623;BME280;67943;54.412;9.502;2023-06-24T13:26:21;102153.25;;;28.13;38.22
78623;BME280;67943;54.412;9.502;2023-06-24T13:31:24;102145.38;;;27.48;39.41
78623;BME280;67943;54.412;9.502;2023-06-24T13:36:31;102144.31;;;27.64;41.01
78623;BME280;67943;54.412;9.502;2023-06-24T13:41:34;102141.00;;;27.84;40.38
78623;BME280;67943;54.412;9.502;2023-06-24T13:46:36;102137.81;;;27.66;40.68
78623;BME280;67943;54.412;9.502;2023-06-24T13:51:39;102144.53;;;28.34;39.94
78623;BME280;67943;54.412;9.502;2023-06-24T13:56:42;102148.34;;;28.55;39.13
78623;BME280;67943;54.412;9.502;2023-06-24T14:01:44;102131.88;;;28.58;38.78
78623;BME280;67943;54.412;9.502;2023-06-24T14:06:45;102128.81;;;28.39;39.02
78623;BME280;67943;54.412;9.502;2023-06-24T14:11:48;102121.47;;;28.04;39.71
78623;BME280;67943;54.412;9.502;2023-06-24T14:16:50;102128.38;;;27.46;41.74
78623;BME280;67943;54.412;9.502;2023-06-24T14:21:51;102121.00;;;27.74;41.49
78623;BME280;67943;54.412;9.502;2023-06-24T14:26:54;102111.84;;;27.51;41.62
78623;BME280;67943;54.412;9.502;2023-06-24T14:31:56;102115.91;;;27.82;42.12
78623;BME280;67943;54.412;9.502;2023-06-24T14:36:57;102115.69;;;27.85;42.20
78623;BME280;67943;54.412;9.502;2023-06-24T14:42:00;102114.50;;;28.26;41.11
78623;BME280;67943;54.412;9.502;2023-06-24T14:47:02;102111.63;;;27.67;41.41
78623;BME280;67943;54.412;9.502;2023-06-24T14:52:04;102102.50;;;27.80;41.69
78623;BME280;67943;54.412;9.502;2023-06-24T14:57:07;102119.81;;;28.14;40.20
78623;BME280;67943;54.412;9.502;2023-06-24T15:02:08;102119.91;;;28.26;37.19
78623;BME280;67943;54.412;9.502;2023-06-24T15:07:10;102107.38;;;28.12;38.36
78623;BME280;67943;54.412;9.502;2023-06-24T15:12:13;102094.59;;;28.14;38.69
78623;BME280;67943;54.412;9.502;2023-06-24T15:17:15;102102.72;;;28.38;37.97
78623;BME280;67943;54.412;9.502;2023-06-24T15:22:16;102102.88;;;28.47;37.05
78623;BME280;67943;54.412;9.502;2023-06-24T15:27:19;102101.94;;;28.25;38.03
78623;BME280;67943;54.412;9.502;2023-06-24T15:32:21;102099.88;;;28.15;38.30
78623;BME280;67943;54.412;9.502;2023-06-24T15:37:22;102090.72;;;28.05;37.81
78623;BME280;67943;54.412;9.502;2023-06-24T15:42:26;102093.19;;;27.84;38.45
78623;BME280;67943;54.412;9.502;2023-06-24T15:47:27;102088.81;;;27.71;38.36
78623;BME280;67943;54.412;9.502;2023-06-24T15:52:28;102092.81;;;27.65;38.22
78623;BME280;67943;54.412;9.502;2023-06-24T15:57:31;102091.66;;;27.31;38.76
78623;BME280;67943;54.412;9.502;2023-06-24T16:02:33;102095.03;;;26.97;39.45
78623;BME280;67943;54.412;9.502;2023-06-24T16:07:34;102102.50;;;26.53;40.52
78623;BME280;67943;54.412;9.502;2023-06-24T16:12:37;102101.69;;;26.39;41.16
78623;BME280;67943;54.412;9.502;2023-06-24T16:17:39;102091.19;;;26.34;41.08
78623;BME280;67943;54.412;9.502;2023-06-24T16:22:40;102094.00;;;26.33;41.01
78623;BME280;67943;54.412;9.502;2023-06-24T16:27:43;102095.38;;;26.52;40.34
78623;BME280;67943;54.412;9.502;2023-06-24T16:32:44;102096.03;;;26.56;40.36
78623;BME280;67943;54.412;9.502;2023-06-24T16:37:46;102103.03;;;26.58;40.11
78623;BME280;67943;54.412;9.502;2023-06-24T16:42:49;102095.88;;;26.45;39.96
78623;BME280;67943;54.412;9.502;2023-06-24T16:47:51;102095.53;;;26.37;40.42
78623;BME280;67943;54.412;9.502;2023-06-24T16:52:52;102096.59;;;26.34;40.58
78623;BME280;67943;54.412;9.502;2023-06-24T16:57:55;102092.44;;;26.29;40.27
78623;BME280;67943;54.412;9.502;2023-06-24T17:02:57;102090.53;;;26.31;40.39
78623;BME280;67943;54.412;9.502;2023-06-24T17:07:59;102084.22;;;26.17;41.27
78623;BME280;67943;54.412;9.502;2023-06-24T17:13:01;102084.03;;;25.94;41.74
78623;BME280;67943;54.412;9.502;2023-06-24T17:18:03;102073.94;;;25.83;41.59
78623;BME280;67943;54.412;9.502;2023-06-24T17:23:04;102072.88;;;25.71;42.19
78623;BME280;67943;54.412;9.502;2023-06-24T17:28:07;102076.38;;;25.59;42.63
78623;BME280;67943;54.412;9.502;2023-06-24T17:33:09;102071.84;;;25.45;42.96
78623;BME280;67943;54.412;9.502;2023-06-24T17:38:10;102066.97;;;25.38;42.96
78623;BME280;67943;54.412;9.502;2023-06-24T17:43:13;102064.38;;;25.36;43.24
78623;BME280;67943;54.412;9.502;2023-06-24T17:48:15;102056.19;;;25.38;43.12
78623;BME280;67943;54.412;9.502;2023-06-24T17:53:16;102049.16;;;25.21;43.45
78623;BME280;67943;54.412;9.502;2023-06-24T17:58:19;102050.22;;;25.18;44.14
78623;BME280;67943;54.412;9.502;2023-06-24T18:03:21;102060.25;;;25.02;44.97
78623;BME280;67943;54.412;9.502;2023-06-24T18:08:23;102053.41;;;24.97;45.46
78623;BME280;67943;54.412;9.502;2023-06-24T18:13:26;102058.34;;;24.88;46.21
78623;BME280;67943;54.412;9.502;2023-06-24T18:18:28;102040.97;;;24.94;46.65
78623;BME280;67943;54.412;9.502;2023-06-24T18:23:29;102034.16;;;25.03;46.42
78623;BME280;67943;54.412;9.502;2023-06-24T18:28:32;102036.09;;;25.01;46.87
78623;BME280;67943;54.412;9.502;2023-06-24T18:33:33;102036.38;;;24.96;47.01
78623;BME280;67943;54.412;9.502;2023-06-24T18:38:35;102030.28;;;24.78;47.76
78623;BME280;67943;54.412;9.502;2023-06-24T18:43:38;102031.97;;;24.65;48.45
78623;BME280;67943;54.412;9.502;2023-06-24T18:48:40;102026.50;;;24.67;48.78
78623;BME280;67943;54.412;9.502;2023-06-24T18:53:41;102032.66;;;24.69;49.12
78623;BME280;67943;54.412;9.502;2023-06-24T18:58:44;102031.03;;;24.66;49.50
78623;BME280;67943;54.412;9.502;2023-06-24T19:03:45;102031.41;;;24.60;49.52
78623;BME280;67943;54.412;9.502;2023-06-24T19:08:47;102020.03;;;24.55;49.61
78623;BME280;67943;54.412;9.502;2023-06-24T19:13:54;102029.66;;;24.45;50.05
78623;BME280;67943;54.412;9.502;2023-06-24T19:18:56;102032.69;;;24.39;50.36
78623;BME280;67943;54.412;9.502;2023-06-24T19:23:57;102027.69;;;24.33;50.94
78623;BME280;67943;54.412;9.502;2023-06-24T19:29:00;102031.19;;;24.19;51.52
78623;BME280;67943;54.412;9.502;2023-06-24T19:34:01;102028.59;;;24.02;52.30
78623;BME280;67943;54.412;9.502;2023-06-24T19:39:03;102034.44;;;23.94;52.90
78623;BME280;67943;54.412;9.502;2023-06-24T19:44:06;102037.03;;;23.80;53.51
78623;BME280;67943;54.412;9.502;2023-06-24T19:49:08;102036.97;;;23.66;54.31
78623;BME280;67943;54.412;9.502;2023-06-24T19:54:10;102044.13;;;23.49;55.14
78623;BME280;67943;54.412;9.502;2023-06-24T19:59:13;102047.84;;;23.31;55.96
78623;BME280;67943;54.412;9.502;2023-06-24T20:04:14;102045.19;;;23.14;56.80
78623;BME280;67943;54.412;9.502;2023-06-24T20:09:16;102049.66;;;22.98;57.82
78623;BME280;67943;54.412;9.502;2023-06-24T20:14:18;102041.47;;;22.83;58.61
78623;BME280;67943;54.412;9.502;2023-06-24T20:19:20;102046.75;;;22.68;59.30
78623;BME280;67943;54.412;9.502;2023-06-24T20:24:21;102050.34;;;22.51;59.54
78623;BME280;67943;54.412;9.502;2023-06-24T20:29:24;102049.22;;;22.38;60.46
78623;BME280;67943;54.412;9.502;2023-06-24T20:34:27;102050.00;;;22.22;60.89
78623;BME280;67943;54.412;9.502;2023-06-24T20:39:29;102051.72;;;22.06;61.46
78623;BME280;67943;54.412;9.502;2023-06-24T20:44:31;102055.81;;;21.95;61.78
78623;BME280;67943;54.412;9.502;2023-06-24T20:49:33;102051.16;;;21.81;62.03
78623;BME280;67943;54.412;9.502;2023-06-24T20:54:35;102047.16;;;21.71;62.28
78623;BME280;67943;54.412;9.502;2023-06-24T20:59:38;102043.22;;;21.61;62.80
78623;BME280;67943;54.412;9.502;2023-06-24T21:04:39;102045.38;;;21.52;63.06
78623;BME280;67943;54.412;9.502;2023-06-24T21:09:41;102054.84;;;21.41;63.41
78623;BME280;67943;54.412;9.502;2023-06-24T21:14:44;102049.88;;;21.33;64.12
78623;BME280;67943;54.412;9.502;2023-06-24T21:19:45;102045.75;;;21.26;64.53
78623;BME280;67943;54.412;9.502;2023-06-24T21:24:46;102039.16;;;21.13;64.46
78623;BME280;67943;54.412;9.502;2023-06-24T21:29:49;102040.63;;;21.01;65.35
78623;BME280;67943;54.412;9.502;2023-06-24T21:34:51;102038.41;;;20.90;65.82
78623;BME280;67943;54.412;9.502;2023-06-24T21:39:52;102043.16;;;20.84;66.21
78623;BME280;67943;54.412;9.502;2023-06-24T21:44:55;102042.59;;;20.77;66.57
78623;BME280;67943;54.412;9.502;2023-06-24T21:49:56;102048.41;;;20.67;67.09
78623;BME280;67943;54.412;9.502;2023-06-24T21:54:58;102038.16;;;20.56;67.52
78623;BME280;67943;54.412;9.502;2023-06-24T22:00:01;102047.53;;;20.46;67.79
78623;BME280;67943;54.412;9.502;2023-06-24T22:05:04;102051.47;;;20.37;68.27
78623;BME280;67943;54.412;9.502;2023-06-24T22:10:06;102053.69;;;20.26;68.63
78623;BME280;67943;54.412;9.502;2023-06-24T22:15:10;102050.41;;;20.19;68.88
78623;BME280;67943;54.412;9.502;2023-06-24T22:20:11;102046.19;;;20.14;68.63
78623;BME280;67943;54.412;9.502;2023-06-24T22:25:13;102040.09;;;20.10;68.88
78623;BME280;67943;54.412;9.502;2023-06-24T22:30:16;102038.63;;;20.03;69.13
78623;BME280;67943;54.412;9.502;2023-06-24T22:35:17;102037.06;;;19.98;69.09
78623;BME280;67943;54.412;9.502;2023-06-24T22:40:19;102039.91;;;19.93;69.00
78623;BME280;67943;54.412;9.502;2023-06-24T22:45:23;102037.63;;;19.84;69.04
78623;BME280;67943;54.412;9.502;2023-06-24T22:50:24;102043.09;;;19.81;69.64
78623;BME280;67943;54.412;9.502;2023-06-24T22:55:26;102046.13;;;19.72;69.72
78623;BME280;67943;54.412;9.502;2023-06-24T23:00:28;102037.69;;;19.61;70.72
78623;BME280;67943;54.412;9.502;2023-06-24T23:05:30;102030.97;;;19.50;70.82
78623;BME280;67943;54.412;9.502;2023-06-24T23:10:33;102024.91;;;19.45;70.75
78623;BME280;67943;54.412;9.502;2023-06-24T23:15:36;102022.41;;;19.41;70.74
78623;BME280;67943;54.412;9.502;2023-06-24T23:20:38;102030.59;;;19.36;71.00
78623;BME280;67943;54.412;9.502;2023-06-24T23:25:41;102020.97;;;19.32;71.05
78623;BME280;67943;54.412;9.502;2023-06-24T23:30:45;102022.16;;;19.25;71.22
78623;BME280;67943;54.412;9.502;2023-06-24T23:35:48;102022.44;;;19.17;71.68
78623;BME280;67943;54.412;9.502;2023-06-24T23:40:50;102018.25;;;19.10;72.12
78623;BME280;67943;54.412;9.502;2023-06-24T23:45:54;102026.56;;;19.03;72.16
78623;BME280;67943;54.412;9.502;2023-06-24T23:50:56;102022.44;;;18.94;71.99
78623;BME280;67943;54.412;9.502;2023-06-24T23:55:57;102018.94;;;18.92;72.43
